createdAt,value
2023-02-04T00:02:32.730Z,6.60
2023-02-04T00:07:29.567Z,6.40
2023-02-04T00:12:26.476Z,6.07
2023-02-04T00:17:23.308Z,6.05
2023-02-04T00:22:20.822Z,5.84
2023-02-04T00:27:17.611Z,6.12
2023-02-04T00:32:16.226Z,5.91
2023-02-04T00:37:13.176Z,5.64
2023-02-04T00:42:10.571Z,5.74
2023-02-04T00:47:07.470Z,5.61
2023-02-04T00:52:04.637Z,5.50
2023-02-04T00:57:01.472Z,5.39
2023-02-04T01:02:00.027Z,5.24
2023-02-04T01:06:57.094Z,5.23
2023-02-04T01:11:53.981Z,4.86
2023-02-04T01:16:50.924Z,4.88
2023-02-04T01:21:48.489Z,4.85
2023-02-04T01:26:45.413Z,4.87
2023-02-04T01:31:42.439Z,4.90
2023-02-04T01:36:39.334Z,4.91
2023-02-04T01:41:37.453Z,4.95
2023-02-04T01:46:37.882Z,4.75
2023-02-04T01:51:36.578Z,4.86
2023-02-04T01:56:33.678Z,5.00
2023-02-04T02:01:36.889Z,4.98
2023-02-04T02:06:34.720Z,4.93
2023-02-04T02:11:32.292Z,4.93
2023-02-04T02:16:30.159Z,4.86
2023-02-04T02:21:33.795Z,4.99
2023-02-04T02:26:31.678Z,4.74
2023-02-04T02:31:28.630Z,4.88
2023-02-04T02:36:25.603Z,4.57
2023-02-04T02:41:22.414Z,5.05
2023-02-04T02:46:20.787Z,4.89
2023-02-04T02:51:17.688Z,5.07
2023-02-04T02:56:14.606Z,4.85
2023-02-04T03:01:12.087Z,4.92
2023-02-04T03:06:13.678Z,4.64
2023-02-04T03:11:12.531Z,4.81
2023-02-04T03:16:09.932Z,5.07
2023-02-04T03:21:07.642Z,5.17
2023-02-04T03:26:05.762Z,4.91
2023-02-04T03:31:03.279Z,5.05
2023-02-04T03:36:00.403Z,4.96
2023-02-04T03:40:57.847Z,5.26
2023-02-04T03:45:55.442Z,5.00
2023-02-04T03:50:52.332Z,5.06
2023-02-04T03:55:49.182Z,5.34
2023-02-04T04:00:45.975Z,5.12
2023-02-04T04:05:43.425Z,5.40
2023-02-04T04:10:41.976Z,5.35
2023-02-04T04:15:38.939Z,5.31
2023-02-04T04:20:35.933Z,5.51
2023-02-04T04:25:33.392Z,5.10
2023-02-04T04:30:31.331Z,5.24
2023-02-04T04:35:28.600Z,5.56
2023-02-04T04:40:25.465Z,5.47
2023-02-04T04:45:22.926Z,5.58
2023-02-04T04:50:20.029Z,5.74
2023-02-04T04:55:17.792Z,5.80
2023-02-04T05:00:17.249Z,5.87
2023-02-04T05:05:15.958Z,5.91
2023-02-04T05:10:12.806Z,5.82
2023-02-04T05:15:09.984Z,5.91
2023-02-04T05:20:08.070Z,5.74
2023-02-04T05:25:06.337Z,6.01
2023-02-04T05:30:03.358Z,5.98
2023-02-04T05:35:04.143Z,5.93
2023-02-04T05:40:02.405Z,6.28
2023-02-04T05:45:00.198Z,6.25
2023-02-04T05:49:58.904Z,5.77
2023-02-04T05:54:56.011Z,6.16
2023-02-04T05:59:53.366Z,6.40
2023-02-04T06:04:51.158Z,6.60
2023-02-04T06:09:47.970Z,6.15
2023-02-04T06:14:44.732Z,6.65
2023-02-04T06:19:41.829Z,6.67
2023-02-04T06:24:39.296Z,6.69
2023-02-04T06:29:36.151Z,6.37
2023-02-04T06:34:34.352Z,6.77
2023-02-04T06:39:31.169Z,6.38
2023-02-04T06:44:28.634Z,6.83
2023-02-04T06:49:25.556Z,6.45
2023-02-04T06:54:25.553Z,6.91
2023-02-04T06:59:25.888Z,6.84
2023-02-04T07:04:23.379Z,6.95
2023-02-04T07:09:20.297Z,6.84
2023-02-04T07:14:18.128Z,6.93
2023-02-04T07:19:15.227Z,6.48
2023-02-04T07:24:12.746Z,6.68
2023-02-04T07:29:17.330Z,6.78
2023-02-04T07:34:17.784Z,6.64
2023-02-04T07:39:15.571Z,6.82
2023-02-04T07:44:12.476Z,6.73
2023-02-04T07:49:09.307Z,6.71
2023-02-04T07:54:06.230Z,6.55
2023-02-04T07:59:03.905Z,6.79
2023-02-04T08:04:00.700Z,7.00
2023-02-04T08:08:57.729Z,7.09
2023-02-04T08:13:57.088Z,7.01
2023-02-04T08:18:56.382Z,7.13
2023-02-04T08:23:54.627Z,7.19
2023-02-04T08:28:51.422Z,7.30
2023-02-04T08:33:48.228Z,7.41
2023-02-04T08:38:45.792Z,7.09
2023-02-04T08:43:42.800Z,7.58
2023-02-04T08:48:39.600Z,7.98
2023-02-04T08:53:37.143Z,7.89
2023-02-04T08:58:35.006Z,8.11
2023-02-04T09:03:32.003Z,8.06
2023-02-04T09:08:28.846Z,8.06
2023-02-04T09:13:25.770Z,7.93
2023-02-04T09:18:24.959Z,8.58
2023-02-04T09:23:22.468Z,8.69
2023-02-04T09:28:19.442Z,8.86
2023-02-04T09:33:17.210Z,8.88
2023-02-04T09:38:15.497Z,8.76
2023-02-04T09:43:17.017Z,8.67
2023-02-04T09:48:14.436Z,8.34
2023-02-04T09:53:17.186Z,8.31
2023-02-04T09:58:17.057Z,8.20
2023-02-04T10:03:16.553Z,8.16
2023-02-04T10:08:16.057Z,8.44
2023-02-04T10:13:18.227Z,8.58
2023-02-04T10:18:26.513Z,8.75
2023-02-04T10:23:23.717Z,8.96
2023-02-04T10:28:21.725Z,9.13
2023-02-04T10:33:24.390Z,8.92
2023-02-04T10:38:22.120Z,8.86
2023-02-04T10:43:22.690Z,9.06
2023-02-04T10:48:20.011Z,8.96
2023-02-04T10:53:37.284Z,8.85
2023-02-04T10:58:35.418Z,8.78
2023-02-04T11:03:32.363Z,9.03
2023-02-04T11:08:33.152Z,9.21
2023-02-04T11:13:41.669Z,9.44
2023-02-04T11:18:47.778Z,9.54
2023-02-04T11:23:44.850Z,9.85
2023-02-04T11:29:08.116Z,9.89
2023-02-04T11:34:11.714Z,10.30
2023-02-04T11:39:16.333Z,10.38
2023-02-04T11:44:16.221Z,10.57
2023-02-04T11:49:17.477Z,10.72
2023-02-04T11:54:18.570Z,10.71
2023-02-04T11:59:17.046Z,10.77
2023-02-04T12:04:23.398Z,10.64
2023-02-04T12:09:25.558Z,10.65
2023-02-04T12:14:29.319Z,10.47
2023-02-04T12:19:27.855Z,10.40
2023-02-04T12:24:24.772Z,10.13
2023-02-04T12:29:22.477Z,10.09
2023-02-04T12:34:19.776Z,10.09
2023-02-04T12:39:16.673Z,9.85
2023-02-04T12:44:14.741Z,9.83
2023-02-04T12:49:12.427Z,9.84
2023-02-04T12:54:09.192Z,9.57
2023-02-04T12:59:06.025Z,9.62
2023-02-04T13:04:02.808Z,9.15
2023-02-04T13:09:01.383Z,9.24
2023-02-04T13:13:58.286Z,8.95
2023-02-04T13:18:55.137Z,9.18
2023-02-04T13:23:52.258Z,9.15
2023-02-04T13:28:49.900Z,9.10
2023-02-04T13:33:46.854Z,8.96
2023-02-04T13:38:43.880Z,9.07
2023-02-04T13:43:40.786Z,9.10
2023-02-04T13:48:38.492Z,9.11
2023-02-04T13:53:35.334Z,8.91
2023-02-04T13:58:32.404Z,8.62
2023-02-04T14:03:30.131Z,8.65
2023-02-04T14:08:27.757Z,8.23
2023-02-04T14:13:24.522Z,8.45
2023-02-04T14:18:21.347Z,8.18
2023-02-04T14:23:18.181Z,7.70
2023-02-04T14:28:15.686Z,7.42
2023-02-04T14:33:14.471Z,7.03
2023-02-04T14:38:11.730Z,6.49
2023-02-04T14:43:10.456Z,6.06
2023-02-04T14:48:08.678Z,6.11
2023-02-04T14:53:05.567Z,5.83
2023-02-04T14:58:02.443Z,5.28
2023-02-04T15:02:59.286Z,5.27
2023-02-04T15:07:56.696Z,4.83
2023-02-04T15:12:54.739Z,4.82
2023-02-04T15:17:51.506Z,4.76
2023-02-04T15:22:51.175Z,4.21
2023-02-04T15:27:48.798Z,4.68
2023-02-04T15:32:45.642Z,3.97
2023-02-04T15:37:42.594Z,4.33
2023-02-04T15:42:40.142Z,4.30
2023-02-04T15:47:37.850Z,4.02
2023-02-04T15:52:35.053Z,3.85
2023-02-04T15:57:32.110Z,3.20
2023-02-04T16:02:31.954Z,3.37
2023-02-04T16:07:29.455Z,3.88
2023-02-04T16:12:26.381Z,3.80
2023-02-04T16:17:23.213Z,3.71
2023-02-04T16:22:20.012Z,3.57
2023-02-04T16:27:17.527Z,3.75
2023-02-04T16:32:15.142Z,3.68
2023-02-04T16:37:11.946Z,3.64
2023-02-04T16:42:09.445Z,3.49
2023-02-04T16:47:08.285Z,3.48
2023-02-04T16:52:05.728Z,3.10
2023-02-04T16:57:03.198Z,2.93
2023-02-04T17:02:00.170Z,3.18
2023-02-04T17:06:59.778Z,3.17
2023-02-04T17:11:56.712Z,2.88
2023-02-04T17:16:54.135Z,3.18
2023-02-04T17:21:50.910Z,2.68
2023-02-04T17:26:48.470Z,2.95
2023-02-04T17:31:45.235Z,2.66
2023-02-04T17:36:43.110Z,3.11
2023-02-04T17:41:40.006Z,2.97
2023-02-04T17:46:37.657Z,3.05
2023-02-04T17:51:34.442Z,2.87
2023-02-04T17:56:31.690Z,2.98
2023-02-04T18:01:28.695Z,2.96
2023-02-04T18:06:28.353Z,3.01
2023-02-04T18:11:27.808Z,2.85
2023-02-04T18:16:36.754Z,2.90
2023-02-04T18:21:39.152Z,2.74
2023-02-04T18:26:43.949Z,2.94
2023-02-04T18:31:49.165Z,2.85
2023-02-04T18:36:46.880Z,2.78
2023-02-04T18:41:45.183Z,2.55
2023-02-04T18:46:46.969Z,2.68
2023-02-04T18:51:45.072Z,2.54
2023-02-04T18:56:43.555Z,2.54
2023-02-04T19:01:40.313Z,2.51
2023-02-04T19:06:39.107Z,2.51
2023-02-04T19:11:37.521Z,2.19
2023-02-04T19:16:36.601Z,2.64
2023-02-04T19:21:35.278Z,2.60
2023-02-04T19:26:38.838Z,2.58
2023-02-04T19:31:38.707Z,2.45
2023-02-04T19:36:37.854Z,2.25
2023-02-04T19:41:44.362Z,2.62
2023-02-04T19:46:42.283Z,2.55
2023-02-04T19:51:39.719Z,2.36
2023-02-04T19:56:38.947Z,2.29
2023-02-04T20:01:35.944Z,2.65
2023-02-04T20:06:35.522Z,2.50
2023-02-04T20:11:48.955Z,2.69
2023-02-04T20:16:49.853Z,2.63
2023-02-04T20:22:00.038Z,2.40
2023-02-04T20:26:57.031Z,2.63
2023-02-04T20:31:56.108Z,2.56
2023-02-04T20:36:54.635Z,2.55
2023-02-04T20:41:51.524Z,2.61
2023-02-04T20:46:48.417Z,2.61
2023-02-04T20:51:45.288Z,2.62
2023-02-04T20:56:43.267Z,2.43
2023-02-04T21:01:43.425Z,2.28
2023-02-04T21:06:40.416Z,2.36
2023-02-04T21:11:37.301Z,2.20
2023-02-04T21:16:34.752Z,1.58
2023-02-04T21:21:31.530Z,2.18
2023-02-04T21:26:28.424Z,1.99
2023-02-04T21:31:25.445Z,1.55
2023-02-04T21:36:23.765Z,1.67
2023-02-04T21:41:20.571Z,1.77
2023-02-04T21:46:18.109Z,1.66
2023-02-04T21:51:15.806Z,1.67
2023-02-04T21:56:13.968Z,1.61
2023-02-04T22:01:10.776Z,1.64
2023-02-04T22:06:08.080Z,1.41
2023-02-04T22:11:05.217Z,1.60
2023-02-04T22:16:02.765Z,1.58
2023-02-04T22:20:59.904Z,1.51
2023-02-04T22:25:56.719Z,1.45
2023-02-04T22:30:54.385Z,1.29
2023-02-04T22:35:51.963Z,1.51
2023-02-04T22:40:49.464Z,1.03
2023-02-04T22:45:46.184Z,1.38
2023-02-04T22:50:43.163Z,1.38
2023-02-04T22:55:40.613Z,1.23
2023-02-04T23:00:38.242Z,1.16
2023-02-04T23:05:36.711Z,0.96
2023-02-04T23:10:33.523Z,1.08
2023-02-04T23:15:31.147Z,1.13
2023-02-04T23:20:28.082Z,1.02
2023-02-04T23:25:24.940Z,1.13
2023-02-04T23:30:24.334Z,1.07
2023-02-04T23:35:22.113Z,0.94
2023-02-04T23:40:19.267Z,0.96
2023-02-04T23:45:16.361Z,0.96
2023-02-04T23:50:13.255Z,0.46
2023-02-04T23:55:10.833Z,0.94
